createdAt,value
2018-11-28T00:02:57.150Z,86.80
2018-11-28T00:08:00.328Z,87.20
2018-11-28T00:13:03.386Z,87.10
2018-11-28T00:18:06.424Z,87.30
2018-11-28T00:23:09.492Z,87.40
2018-11-28T00:28:12.643Z,88.20
2018-11-28T00:33:15.749Z,89.00
2018-11-28T00:38:18.771Z,88.10
2018-11-28T00:43:21.835Z,88.50
2018-11-28T00:48:24.879Z,89.80
2018-11-28T00:53:27.947Z,89.70
2018-11-28T00:58:31.091Z,89.20
2018-11-28T01:03:34.290Z,89.80
2018-11-28T01:08:37.381Z,90.00
2018-11-28T01:13:40.467Z,89.80
2018-11-28T01:18:43.523Z,89.50
2018-11-28T01:23:46.562Z,89.40
2018-11-28T01:28:49.615Z,89.20
2018-11-28T01:33:52.653Z,89.50
2018-11-28T01:38:55.724Z,89.20
2018-11-28T01:43:58.790Z,88.80
2018-11-28T01:49:01.848Z,88.30
2018-11-28T01:54:05.598Z,87.90
2018-11-28T01:59:08.677Z,87.60
2018-11-28T02:04:11.723Z,88.60
2018-11-28T02:09:14.814Z,88.60
2018-11-28T02:14:17.839Z,88.70
2018-11-28T02:19:20.884Z,89.30
2018-11-28T02:24:23.917Z,89.30
2018-11-28T02:29:26.966Z,89.40
2018-11-28T02:34:30.025Z,89.20
2018-11-28T02:39:33.040Z,89.60
2018-11-28T02:44:36.087Z,88.80
2018-11-28T02:49:39.142Z,88.40
2018-11-28T02:54:42.171Z,89.60
2018-11-28T02:59:45.234Z,88.80
2018-11-28T03:04:48.295Z,88.60
2018-11-28T03:09:51.357Z,88.30
2018-11-28T03:14:54.394Z,88.80
2018-11-28T03:19:57.456Z,88.60
2018-11-28T03:25:00.497Z,88.00
2018-11-28T03:30:04.552Z,88.60
2018-11-28T03:35:09.203Z,88.50
2018-11-28T03:40:12.602Z,88.80
2018-11-28T03:45:16.250Z,88.20
2018-11-28T03:50:19.305Z,88.20
2018-11-28T03:55:22.358Z,88.40
2018-11-28T04:00:25.424Z,88.80
2018-11-28T04:05:28.524Z,89.00
2018-11-28T04:10:31.761Z,89.10
2018-11-28T04:15:34.851Z,88.20
2018-11-28T04:20:37.948Z,88.40
2018-11-28T04:25:41.037Z,88.50
2018-11-28T04:30:44.089Z,88.30
2018-11-28T04:35:47.155Z,88.10
2018-11-28T04:40:50.217Z,87.70
2018-11-28T04:45:53.274Z,87.60
2018-11-28T04:50:56.333Z,87.90
2018-11-28T04:55:59.393Z,88.30
2018-11-28T05:01:02.453Z,88.10
2018-11-28T05:06:05.499Z,87.60
2018-11-28T05:11:08.567Z,87.80
2018-11-28T05:16:18.351Z,87.60
2018-11-28T05:21:21.389Z,88.20
2018-11-28T05:26:24.504Z,88.10
2018-11-28T05:31:27.580Z,87.50
2018-11-28T05:36:30.624Z,87.40
2018-11-28T05:41:33.660Z,87.40
2018-11-28T05:46:36.699Z,87.90
2018-11-28T05:51:39.983Z,87.70
2018-11-28T05:56:43.044Z,87.60
2018-11-28T06:01:46.113Z,87.60
2018-11-28T06:06:49.169Z,87.50
2018-11-28T06:11:52.245Z,87.40
2018-11-28T06:16:55.295Z,87.70
2018-11-28T06:21:58.380Z,87.90
2018-11-28T06:27:01.411Z,88.30
2018-11-28T06:32:04.507Z,88.00
2018-11-28T06:37:07.592Z,87.70
2018-11-28T06:42:10.686Z,88.00
2018-11-28T06:47:13.795Z,87.80
2018-11-28T06:52:16.857Z,87.40
2018-11-28T06:57:19.920Z,87.40
2018-11-28T07:02:22.993Z,87.60
2018-11-28T07:07:26.050Z,86.80
2018-11-28T07:12:29.143Z,86.30
2018-11-28T07:17:32.222Z,89.70
2018-11-28T07:22:35.369Z,81.80
2018-11-28T07:27:38.432Z,78.30
2018-11-28T07:32:41.530Z,73.10
2018-11-28T07:37:44.598Z,70.20
2018-11-28T07:42:51.780Z,67.30
2018-11-28T07:47:54.940Z,63.80
2018-11-28T07:52:58.039Z,58.60
2018-11-28T07:58:01.186Z,54.60
2018-11-28T08:03:05.662Z,52.40
2018-11-28T08:08:10.607Z,51.20
2018-11-28T08:13:13.659Z,57.60
2018-11-28T08:18:16.769Z,64.60
2018-11-28T08:23:19.914Z,64.30
2018-11-28T08:28:22.957Z,55.70
2018-11-28T08:33:26.078Z,47.00
2018-11-28T08:38:29.122Z,40.90
2018-11-28T08:43:32.245Z,35.90
2018-11-28T08:48:35.350Z,34.00
2018-11-28T08:53:38.425Z,32.90
2018-11-28T08:58:41.583Z,34.40
2018-11-28T09:03:45.460Z,32.50
2018-11-28T09:08:48.630Z,34.70
2018-11-28T09:13:51.689Z,33.10
2018-11-28T09:18:54.814Z,31.20
2018-11-28T09:23:57.972Z,32.50
2018-11-28T09:29:01.387Z,27.10
2018-11-28T09:34:04.957Z,24.30
2018-11-28T09:39:08.380Z,25.00
2018-11-28T09:44:11.848Z,23.80
2018-11-28T09:49:15.324Z,21.80
2018-11-28T09:54:25.304Z,23.10
2018-11-28T09:59:28.646Z,25.30
2018-11-28T10:04:32.014Z,28.20
2018-11-28T10:09:35.343Z,27.80
2018-11-28T10:14:38.688Z,28.80
2018-11-28T10:19:41.993Z,31.10
2018-11-28T10:24:45.300Z,29.50
2018-11-28T10:29:48.618Z,28.70
2018-11-28T10:34:51.942Z,30.40
2018-11-28T10:39:55.296Z,29.90
2018-11-28T10:44:58.625Z,29.40
2018-11-28T10:50:01.927Z,30.00
2018-11-28T10:55:06.362Z,28.50
2018-11-28T11:00:48.591Z,29.60
2018-11-28T11:05:57.063Z,30.00
2018-11-28T11:11:05.704Z,30.60
2018-11-28T11:16:08.770Z,33.50
2018-11-28T11:21:12.229Z,33.20
2018-11-28T11:26:15.332Z,34.90
2018-11-28T11:31:52.086Z,31.90
2018-11-28T11:36:56.639Z,33.60
2018-11-28T11:41:59.688Z,31.90
2018-11-28T11:47:02.731Z,31.70
2018-11-28T11:52:05.820Z,31.60
2018-11-28T11:57:08.876Z,31.40
2018-11-28T12:02:11.904Z,32.30
2018-11-28T12:07:14.965Z,33.70
2018-11-28T12:12:18.024Z,33.40
2018-11-28T12:17:21.057Z,33.80
2018-11-28T12:22:24.184Z,35.90
2018-11-28T12:27:27.324Z,32.30
2018-11-28T12:32:30.440Z,34.90
2018-11-28T12:37:33.485Z,35.40
2018-11-28T12:42:36.586Z,34.00
2018-11-28T12:47:39.642Z,34.50
2018-11-28T12:52:42.672Z,34.50
2018-11-28T12:57:45.735Z,36.70
2018-11-28T13:02:48.812Z,36.70
2018-11-28T13:07:51.884Z,37.90
2018-11-28T13:12:55.067Z,36.30
2018-11-28T13:17:58.133Z,38.00
2018-11-28T13:23:01.186Z,38.90
2018-11-28T13:28:07.739Z,40.40
2018-11-28T13:33:10.799Z,43.80
2018-11-28T13:38:13.879Z,46.10
2018-11-28T13:43:16.925Z,49.70
2018-11-28T13:48:20.021Z,49.00
2018-11-28T13:53:23.083Z,50.20
2018-11-28T13:58:26.158Z,50.60
2018-11-28T14:03:29.211Z,50.50
2018-11-28T14:08:32.242Z,51.90
2018-11-28T14:13:35.272Z,51.50
2018-11-28T14:18:38.360Z,51.90
2018-11-28T14:23:41.397Z,52.70
2018-11-28T14:28:44.505Z,52.40
2018-11-28T14:33:50.843Z,53.00
2018-11-28T14:38:50.704Z,53.00
2018-11-28T14:43:53.760Z,52.90
2018-11-28T14:48:56.809Z,53.50
2018-11-28T14:53:59.831Z,53.70
2018-11-28T14:59:02.880Z,54.20
2018-11-28T15:04:06.437Z,55.00
2018-11-28T15:09:15.734Z,55.20
2018-11-28T15:14:18.777Z,56.90
2018-11-28T15:19:21.938Z,56.00
2018-11-28T15:24:25.299Z,56.20
2018-11-28T15:29:28.819Z,56.80
2018-11-28T15:34:32.189Z,57.10
2018-11-28T15:39:35.603Z,57.70
2018-11-28T15:44:38.929Z,57.70
2018-11-28T15:49:42.548Z,58.40
2018-11-28T15:54:45.681Z,57.90
2018-11-28T15:59:48.755Z,58.00
2018-11-28T16:04:51.833Z,58.50
2018-11-28T16:10:00.340Z,58.80
2018-11-28T16:15:03.385Z,58.50
2018-11-28T16:20:06.491Z,58.90
2018-11-28T16:25:11.479Z,58.70
2018-11-28T16:30:15.418Z,59.00
2018-11-28T16:35:18.599Z,59.40
2018-11-28T16:40:21.685Z,62.00
2018-11-28T16:45:24.820Z,58.10
2018-11-28T16:50:27.928Z,57.70
2018-11-28T16:55:30.952Z,58.20
2018-11-28T17:00:34.046Z,57.80
2018-11-28T17:05:39.329Z,58.60
2018-11-28T17:10:42.547Z,57.80
2018-11-28T17:15:45.600Z,57.90
2018-11-28T17:20:48.694Z,57.70
2018-11-28T17:25:51.737Z,57.60
2018-11-28T17:30:54.796Z,57.80
2018-11-28T17:35:57.843Z,57.90
2018-11-28T17:41:00.905Z,57.90
2018-11-28T17:46:04.093Z,58.80
2018-11-28T17:51:07.160Z,60.10
2018-11-28T17:56:10.271Z,59.10
2018-11-28T18:01:13.332Z,59.40
2018-11-28T18:06:16.414Z,59.40
2018-11-28T18:11:19.463Z,61.10
2018-11-28T18:16:23.552Z,60.30
2018-11-28T18:21:26.607Z,60.00
2018-11-28T18:26:29.948Z,60.80
2018-11-28T18:31:32.983Z,60.70
2018-11-28T18:36:36.076Z,60.70
2018-11-28T18:41:42.576Z,61.10
2018-11-28T18:46:45.679Z,61.00
2018-11-28T18:51:48.776Z,62.70
2018-11-28T18:56:51.836Z,61.80
2018-11-28T19:01:55.036Z,61.50
2018-11-28T19:06:58.102Z,62.10
2018-11-28T19:12:01.174Z,62.10
2018-11-28T19:17:04.260Z,61.70
2018-11-28T19:22:07.332Z,61.70
2018-11-28T19:27:10.477Z,61.40
2018-11-28T19:32:13.560Z,61.90
2018-11-28T19:37:16.662Z,62.00
2018-11-28T19:42:19.693Z,62.00
2018-11-28T19:47:22.736Z,62.30
2018-11-28T19:52:25.832Z,61.40
2018-11-28T19:57:28.944Z,62.90
2018-11-28T20:02:31.918Z,61.50
2018-11-28T20:07:34.989Z,62.00
2018-11-28T20:12:38.336Z,62.00
2018-11-28T20:17:41.372Z,62.00
2018-11-28T20:22:44.484Z,63.30
2018-11-28T20:27:52.906Z,63.20
2018-11-28T20:32:56.049Z,63.00
2018-11-28T20:37:59.180Z,65.40
2018-11-28T20:43:02.250Z,64.70
2018-11-28T20:48:05.324Z,65.60
2018-11-28T20:53:11.002Z,65.80
2018-11-28T20:58:14.229Z,66.60
2018-11-28T21:03:24.019Z,67.50
2018-11-28T21:08:27.206Z,67.30
2018-11-28T21:13:30.334Z,68.70
2018-11-28T21:18:33.562Z,69.10
2018-11-28T21:23:36.624Z,68.20
2018-11-28T21:28:39.667Z,68.50
2018-11-28T21:33:42.739Z,68.40
2018-11-28T21:38:46.189Z,68.80
2018-11-28T21:43:49.382Z,68.60
2018-11-28T21:48:57.504Z,69.10
2018-11-28T21:54:00.610Z,70.70
2018-11-28T21:59:03.652Z,69.20
2018-11-28T22:04:06.743Z,69.30
2018-11-28T22:09:09.826Z,68.80
2018-11-28T22:14:12.892Z,69.20
2018-11-28T22:19:16.205Z,69.80
2018-11-28T22:24:19.297Z,69.00
2018-11-28T22:29:22.504Z,68.40
2018-11-28T22:34:28.429Z,68.90
2018-11-28T22:39:31.735Z,69.70
2018-11-28T22:44:34.794Z,68.80
2018-11-28T22:49:37.969Z,68.30
2018-11-28T22:54:41.004Z,69.30
2018-11-28T22:59:44.029Z,68.30
2018-11-28T23:04:51.328Z,68.20
2018-11-28T23:09:54.427Z,67.30
2018-11-28T23:15:06.097Z,68.30
2018-11-28T23:20:10.924Z,67.30
2018-11-28T23:25:16.891Z,67.10
2018-11-28T23:30:23.815Z,67.30
2018-11-28T23:35:26.861Z,66.80
2018-11-28T23:40:30.364Z,67.00
2018-11-28T23:45:34.347Z,67.20
2018-11-28T23:50:37.375Z,67.10
2018-11-28T23:55:40.709Z,66.90
